sensor_id;sensor_type;location;lat;lon;timestamp;P1;durP1;ratioP1;P2;durP2;ratioP2
80565;SDS011;69915;54.862;10.730;2023-08-12T00:01:05;5.65;;;3.28;;
80565;SDS011;69915;54.862;10.730;2023-08-12T00:03:30;7.28;;;3.40;;
80565;SDS011;69915;54.862;10.730;2023-08-12T00:05:57;6.10;;;3.00;;
80565;SDS011;69915;54.862;10.730;2023-08-12T00:08:25;6.05;;;3.08;;
80565;SDS011;69915;54.862;10.730;2023-08-12T00:10:51;7.10;;;3.33;;
80565;SDS011;69915;54.862;10.730;2023-08-12T00:13:16;4.95;;;2.92;;
80565;SDS011;69915;54.862;10.730;2023-08-12T00:15:43;6.57;;;3.58;;
80565;SDS011;69915;54.862;10.730;2023-08-12T00:18:09;10.20;;;3.25;;
80565;SDS011;69915;54.862;10.730;2023-08-12T00:20:34;4.63;;;3.22;;
80565;SDS011;69915;54.862;10.730;2023-08-12T00:23:00;5.82;;;3.05;;
80565;SDS011;69915;54.862;10.730;2023-08-12T00:25:25;5.30;;;3.10;;
80565;SDS011;69915;54.862;10.730;2023-08-12T00:27:51;5.90;;;3.33;;
80565;SDS011;69915;54.862;10.730;2023-08-12T00:30:17;8.40;;;3.25;;
80565;SDS011;69915;54.862;10.730;2023-08-12T00:32:42;5.43;;;3.03;;
80565;SDS011;69915;54.862;10.730;2023-08-12T00:35:08;4.82;;;3.50;;
80565;SDS011;69915;54.862;10.730;2023-08-12T00:37:34;6.40;;;2.90;;
80565;SDS011;69915;54.862;10.730;2023-08-12T00:39:59;4.78;;;2.72;;
80565;SDS011;69915;54.862;10.730;2023-08-12T00:42:25;6.30;;;3.08;;
80565;SDS011;69915;54.862;10.730;2023-08-12T00:44:50;4.57;;;2.80;;
80565;SDS011;69915;54.862;10.730;2023-08-12T00:47:16;7.28;;;3.30;;
80565;SDS011;69915;54.862;10.730;2023-08-12T00:49:42;4.93;;;3.08;;
80565;SDS011;69915;54.862;10.730;2023-08-12T00:52:11;5.25;;;3.67;;
80565;SDS011;69915;54.862;10.730;2023-08-12T00:54:38;5.68;;;3.00;;
80565;SDS011;69915;54.862;10.730;2023-08-12T00:57:04;7.22;;;3.28;;
80565;SDS011;69915;54.862;10.730;2023-08-12T00:59:31;7.18;;;3.58;;
80565;SDS011;69915;54.862;10.730;2023-08-12T01:01:59;5.55;;;3.30;;
80565;SDS011;69915;54.862;10.730;2023-08-12T01:04:25;6.95;;;3.88;;
80565;SDS011;69915;54.862;10.730;2023-08-12T01:06:51;4.88;;;3.33;;
80565;SDS011;69915;54.862;10.730;2023-08-12T01:09:16;5.50;;;3.20;;
80565;SDS011;69915;54.862;10.730;2023-08-12T01:11:46;7.05;;;3.40;;
80565;SDS011;69915;54.862;10.730;2023-08-12T01:14:38;5.97;;;3.05;;
80565;SDS011;69915;54.862;10.730;2023-08-12T01:17:11;5.78;;;3.80;;
80565;SDS011;69915;54.862;10.730;2023-08-12T01:19:39;5.10;;;3.08;;
80565;SDS011;69915;54.862;10.730;2023-08-12T01:22:09;7.32;;;3.80;;
80565;SDS011;69915;54.862;10.730;2023-08-12T01:24:36;5.05;;;2.67;;
80565;SDS011;69915;54.862;10.730;2023-08-12T01:27:06;7.78;;;3.20;;
80565;SDS011;69915;54.862;10.730;2023-08-12T01:29:33;8.90;;;3.08;;
80565;SDS011;69915;54.862;10.730;2023-08-12T01:37:03;4.93;;;3.00;;
80565;SDS011;69915;54.862;10.730;2023-08-12T01:39:31;7.25;;;2.80;;
80565;SDS011;69915;54.862;10.730;2023-08-12T01:42:00;4.43;;;3.00;;
80565;SDS011;69915;54.862;10.730;2023-08-12T01:44:26;5.28;;;2.72;;
80565;SDS011;69915;54.862;10.730;2023-08-12T01:50:10;3.30;;;2.15;;
80565;SDS011;69915;54.862;10.730;2023-08-12T01:52:36;6.32;;;2.50;;
80565;SDS011;69915;54.862;10.730;2023-08-12T01:55:01;5.63;;;2.88;;
80565;SDS011;69915;54.862;10.730;2023-08-12T01:57:27;6.55;;;2.88;;
80565;SDS011;69915;54.862;10.730;2023-08-12T01:59:52;8.80;;;3.08;;
80565;SDS011;69915;54.862;10.730;2023-08-12T02:02:17;7.32;;;3.20;;
80565;SDS011;69915;54.862;10.730;2023-08-12T02:04:43;6.25;;;3.08;;
80565;SDS011;69915;54.862;10.730;2023-08-12T02:07:09;9.98;;;2.80;;
80565;SDS011;69915;54.862;10.730;2023-08-12T02:09:35;4.68;;;2.55;;
80565;SDS011;69915;54.862;10.730;2023-08-12T02:12:02;4.65;;;2.35;;
80565;SDS011;69915;54.862;10.730;2023-08-12T02:14:27;4.00;;;2.78;;
80565;SDS011;69915;54.862;10.730;2023-08-12T02:16:53;4.57;;;2.50;;
80565;SDS011;69915;54.862;10.730;2023-08-12T02:19:18;7.47;;;2.83;;
80565;SDS011;69915;54.862;10.730;2023-08-12T02:21:44;3.90;;;2.50;;
80565;SDS011;69915;54.862;10.730;2023-08-12T02:24:09;6.65;;;2.78;;
80565;SDS011;69915;54.862;10.730;2023-08-12T02:26:34;6.72;;;3.22;;
80565;SDS011;69915;54.862;10.730;2023-08-12T02:29:00;4.68;;;2.53;;
80565;SDS011;69915;54.862;10.730;2023-08-12T02:31:25;5.78;;;2.80;;
80565;SDS011;69915;54.862;10.730;2023-08-12T02:33:51;4.88;;;2.47;;
80565;SDS011;69915;54.862;10.730;2023-08-12T02:36:17;6.00;;;2.75;;
80565;SDS011;69915;54.862;10.730;2023-08-12T02:38:42;6.90;;;2.97;;
80565;SDS011;69915;54.862;10.730;2023-08-12T02:41:08;7.57;;;3.00;;
80565;SDS011;69915;54.862;10.730;2023-08-12T02:43:34;4.32;;;2.90;;
80565;SDS011;69915;54.862;10.730;2023-08-12T02:45:59;5.25;;;3.15;;
80565;SDS011;69915;54.862;10.730;2023-08-12T02:48:24;5.82;;;2.80;;
80565;SDS011;69915;54.862;10.730;2023-08-12T02:50:50;5.18;;;2.80;;
80565;SDS011;69915;54.862;10.730;2023-08-12T02:53:15;8.05;;;3.63;;
80565;SDS011;69915;54.862;10.730;2023-08-12T02:55:41;7.15;;;2.95;;
80565;SDS011;69915;54.862;10.730;2023-08-12T02:58:06;5.28;;;3.10;;
80565;SDS011;69915;54.862;10.730;2023-08-12T03:00:32;7.40;;;3.50;;
80565;SDS011;69915;54.862;10.730;2023-08-12T03:02:57;4.57;;;2.75;;
80565;SDS011;69915;54.862;10.730;2023-08-12T03:05:23;5.55;;;2.88;;
80565;SDS011;69915;54.862;10.730;2023-08-12T03:07:49;6.18;;;2.92;;
80565;SDS011;69915;54.862;10.730;2023-08-12T03:10:17;4.95;;;2.50;;
80565;SDS011;69915;54.862;10.730;2023-08-12T03:12:42;8.77;;;3.30;;
80565;SDS011;69915;54.862;10.730;2023-08-12T03:15:08;7.15;;;3.08;;
80565;SDS011;69915;54.862;10.730;2023-08-12T03:17:35;5.43;;;3.08;;
80565;SDS011;69915;54.862;10.730;2023-08-12T03:20:03;7.28;;;2.72;;
80565;SDS011;69915;54.862;10.730;2023-08-12T03:22:30;6.20;;;2.67;;
80565;SDS011;69915;54.862;10.730;2023-08-12T03:24:56;4.47;;;2.90;;
80565;SDS011;69915;54.862;10.730;2023-08-12T03:27:21;5.35;;;2.63;;
80565;SDS011;69915;54.862;10.730;2023-08-12T03:29:46;4.47;;;2.67;;
80565;SDS011;69915;54.862;10.730;2023-08-12T03:32:12;6.18;;;2.78;;
80565;SDS011;69915;54.862;10.730;2023-08-12T03:34:38;5.63;;;3.10;;
80565;SDS011;69915;54.862;10.730;2023-08-12T03:37:03;7.00;;;2.90;;
80565;SDS011;69915;54.862;10.730;2023-08-12T03:39:29;5.43;;;3.22;;
80565;SDS011;69915;54.862;10.730;2023-08-12T03:41:54;4.55;;;2.35;;
80565;SDS011;69915;54.862;10.730;2023-08-12T03:44:20;7.45;;;2.83;;
80565;SDS011;69915;54.862;10.730;2023-08-12T03:46:45;5.78;;;2.40;;
80565;SDS011;69915;54.862;10.730;2023-08-12T03:49:11;6.68;;;2.85;;
80565;SDS011;69915;54.862;10.730;2023-08-12T03:51:36;4.90;;;2.35;;
80565;SDS011;69915;54.862;10.730;2023-08-12T03:54:02;3.55;;;2.45;;
80565;SDS011;69915;54.862;10.730;2023-08-12T03:56:28;4.55;;;2.90;;
80565;SDS011;69915;54.862;10.730;2023-08-12T03:58:54;4.68;;;2.88;;
80565;SDS011;69915;54.862;10.730;2023-08-12T04:01:20;4.43;;;2.28;;
80565;SDS011;69915;54.862;10.730;2023-08-12T04:03:45;5.75;;;2.60;;
80565;SDS011;69915;54.862;10.730;2023-08-12T04:06:10;4.93;;;2.60;;
80565;SDS011;69915;54.862;10.730;2023-08-12T04:08:36;6.40;;;3.22;;
80565;SDS011;69915;54.862;10.730;2023-08-12T04:11:01;5.13;;;2.70;;
80565;SDS011;69915;54.862;10.730;2023-08-12T04:13:27;4.75;;;2.40;;
80565;SDS011;69915;54.862;10.730;2023-08-12T04:15:54;4.47;;;2.50;;
80565;SDS011;69915;54.862;10.730;2023-08-12T04:18:19;5.43;;;2.80;;
80565;SDS011;69915;54.862;10.730;2023-08-12T04:20:45;5.38;;;2.30;;
80565;SDS011;69915;54.862;10.730;2023-08-12T04:23:12;5.10;;;2.85;;
80565;SDS011;69915;54.862;10.730;2023-08-12T04:25:38;4.45;;;2.38;;
80565;SDS011;69915;54.862;10.730;2023-08-12T04:28:04;4.88;;;2.50;;
80565;SDS011;69915;54.862;10.730;2023-08-12T04:30:29;5.25;;;2.20;;
80565;SDS011;69915;54.862;10.730;2023-08-12T04:32:55;5.35;;;2.45;;
80565;SDS011;69915;54.862;10.730;2023-08-12T04:35:20;4.43;;;2.58;;
80565;SDS011;69915;54.862;10.730;2023-08-12T04:37:45;5.07;;;2.40;;
80565;SDS011;69915;54.862;10.730;2023-08-12T04:40:11;5.15;;;2.58;;
80565;SDS011;69915;54.862;10.730;2023-08-12T04:42:36;5.50;;;2.70;;
80565;SDS011;69915;54.862;10.730;2023-08-12T04:45:02;4.32;;;2.47;;
80565;SDS011;69915;54.862;10.730;2023-08-12T04:47:28;4.53;;;2.03;;
80565;SDS011;69915;54.862;10.730;2023-08-12T04:49:54;7.88;;;2.22;;
80565;SDS011;69915;54.862;10.730;2023-08-12T04:52:19;3.35;;;1.77;;
80565;SDS011;69915;54.862;10.730;2023-08-12T04:54:46;4.10;;;2.20;;
80565;SDS011;69915;54.862;10.730;2023-08-12T04:57:17;5.65;;;2.47;;
80565;SDS011;69915;54.862;10.730;2023-08-12T05:00:21;6.38;;;2.20;;
80565;SDS011;69915;54.862;10.730;2023-08-12T05:02:47;4.30;;;2.38;;
80565;SDS011;69915;54.862;10.730;2023-08-12T05:05:12;5.50;;;2.47;;
80565;SDS011;69915;54.862;10.730;2023-08-12T05:07:38;5.25;;;2.72;;
80565;SDS011;69915;54.862;10.730;2023-08-12T05:10:03;3.40;;;1.98;;
80565;SDS011;69915;54.862;10.730;2023-08-12T05:12:29;3.40;;;2.33;;
80565;SDS011;69915;54.862;10.730;2023-08-12T05:14:55;5.13;;;2.15;;
80565;SDS011;69915;54.862;10.730;2023-08-12T05:17:20;5.05;;;2.58;;
80565;SDS011;69915;54.862;10.730;2023-08-12T05:19:46;4.22;;;2.05;;
80565;SDS011;69915;54.862;10.730;2023-08-12T05:22:12;4.20;;;2.42;;
80565;SDS011;69915;54.862;10.730;2023-08-12T05:24:37;4.95;;;2.30;;
80565;SDS011;69915;54.862;10.730;2023-08-12T05:27:02;6.65;;;2.05;;
80565;SDS011;69915;54.862;10.730;2023-08-12T05:29:29;4.65;;;2.55;;
80565;SDS011;69915;54.862;10.730;2023-08-12T05:31:55;5.75;;;2.70;;
80565;SDS011;69915;54.862;10.730;2023-08-12T05:34:21;6.70;;;2.70;;
80565;SDS011;69915;54.862;10.730;2023-08-12T05:36:46;4.55;;;1.90;;
80565;SDS011;69915;54.862;10.730;2023-08-12T05:39:12;6.35;;;2.25;;
80565;SDS011;69915;54.862;10.730;2023-08-12T05:41:37;4.50;;;2.50;;
80565;SDS011;69915;54.862;10.730;2023-08-12T05:44:03;6.10;;;2.78;;
80565;SDS011;69915;54.862;10.730;2023-08-12T05:46:29;3.60;;;2.38;;
80565;SDS011;69915;54.862;10.730;2023-08-12T05:48:54;6.80;;;2.75;;
80565;SDS011;69915;54.862;10.730;2023-08-12T05:51:20;4.95;;;2.47;;
80565;SDS011;69915;54.862;10.730;2023-08-12T05:53:45;4.13;;;2.55;;
80565;SDS011;69915;54.862;10.730;2023-08-12T05:56:11;5.20;;;2.40;;
80565;SDS011;69915;54.862;10.730;2023-08-12T05:58:37;5.35;;;2.47;;
80565;SDS011;69915;54.862;10.730;2023-08-12T06:01:02;4.63;;;2.60;;
80565;SDS011;69915;54.862;10.730;2023-08-12T06:03:27;5.38;;;2.40;;
80565;SDS011;69915;54.862;10.730;2023-08-12T06:05:53;4.38;;;2.80;;
80565;SDS011;69915;54.862;10.730;2023-08-12T06:08:18;5.03;;;2.40;;
80565;SDS011;69915;54.862;10.730;2023-08-12T06:10:44;5.47;;;2.45;;
80565;SDS011;69915;54.862;10.730;2023-08-12T06:13:09;4.78;;;3.05;;
80565;SDS011;69915;54.862;10.730;2023-08-12T06:15:36;6.05;;;2.78;;
80565;SDS011;69915;54.862;10.730;2023-08-12T06:18:02;5.55;;;2.67;;
80565;SDS011;69915;54.862;10.730;2023-08-12T06:20:34;6.70;;;2.75;;
80565;SDS011;69915;54.862;10.730;2023-08-12T06:23:02;7.68;;;2.60;;
80565;SDS011;69915;54.862;10.730;2023-08-12T06:25:31;4.65;;;2.30;;
80565;SDS011;69915;54.862;10.730;2023-08-12T06:27:56;5.32;;;2.67;;
80565;SDS011;69915;54.862;10.730;2023-08-12T06:30:24;5.22;;;2.40;;
80565;SDS011;69915;54.862;10.730;2023-08-12T06:32:50;4.75;;;2.40;;
80565;SDS011;69915;54.862;10.730;2023-08-12T06:35:15;5.10;;;2.75;;
80565;SDS011;69915;54.862;10.730;2023-08-12T06:37:41;4.78;;;2.00;;
80565;SDS011;69915;54.862;10.730;2023-08-12T06:40:06;9.25;;;2.42;;
80565;SDS011;69915;54.862;10.730;2023-08-12T06:42:32;3.53;;;2.42;;
80565;SDS011;69915;54.862;10.730;2023-08-12T06:44:58;6.10;;;2.58;;
80565;SDS011;69915;54.862;10.730;2023-08-12T06:47:24;4.50;;;2.95;;
80565;SDS011;69915;54.862;10.730;2023-08-12T06:49:52;4.63;;;2.35;;
80565;SDS011;69915;54.862;10.730;2023-08-12T06:52:18;5.43;;;2.60;;
80565;SDS011;69915;54.862;10.730;2023-08-12T06:54:43;4.68;;;2.92;;
80565;SDS011;69915;54.862;10.730;2023-08-12T06:57:08;5.85;;;3.85;;
80565;SDS011;69915;54.862;10.730;2023-08-12T06:59:34;6.32;;;3.50;;
80565;SDS011;69915;54.862;10.730;2023-08-12T07:01:59;5.93;;;3.33;;
80565;SDS011;69915;54.862;10.730;2023-08-12T07:04:25;7.40;;;2.75;;
80565;SDS011;69915;54.862;10.730;2023-08-12T07:06:50;4.28;;;2.90;;
80565;SDS011;69915;54.862;10.730;2023-08-12T07:09:16;5.13;;;2.97;;
80565;SDS011;69915;54.862;10.730;2023-08-12T07:11:42;6.85;;;2.80;;
80565;SDS011;69915;54.862;10.730;2023-08-12T07:14:07;5.28;;;2.80;;
80565;SDS011;69915;54.862;10.730;2023-08-12T07:16:33;4.93;;;2.63;;
80565;SDS011;69915;54.862;10.730;2023-08-12T07:18:58;5.47;;;2.85;;
80565;SDS011;69915;54.862;10.730;2023-08-12T07:21:24;5.13;;;2.92;;
80565;SDS011;69915;54.862;10.730;2023-08-12T07:23:49;4.10;;;2.60;;
80565;SDS011;69915;54.862;10.730;2023-08-12T07:26:15;3.78;;;2.25;;
80565;SDS011;69915;54.862;10.730;2023-08-12T07:28:41;4.75;;;2.67;;
80565;SDS011;69915;54.862;10.730;2023-08-12T07:31:06;4.40;;;2.85;;
80565;SDS011;69915;54.862;10.730;2023-08-12T07:33:32;4.85;;;2.70;;
80565;SDS011;69915;54.862;10.730;2023-08-12T07:35:57;5.78;;;2.60;;
80565;SDS011;69915;54.862;10.730;2023-08-12T07:38:23;4.55;;;2.95;;
80565;SDS011;69915;54.862;10.730;2023-08-12T07:40:49;6.68;;;3.08;;
80565;SDS011;69915;54.862;10.730;2023-08-12T07:43:15;4.60;;;2.97;;
80565;SDS011;69915;54.862;10.730;2023-08-12T07:45:40;6.10;;;2.90;;
80565;SDS011;69915;54.862;10.730;2023-08-12T07:48:06;3.92;;;2.63;;
80565;SDS011;69915;54.862;10.730;2023-08-12T07:50:31;5.07;;;3.10;;
80565;SDS011;69915;54.862;10.730;2023-08-12T07:52:56;6.53;;;3.30;;
80565;SDS011;69915;54.862;10.730;2023-08-12T07:55:22;7.43;;;3.10;;
80565;SDS011;69915;54.862;10.730;2023-08-12T07:57:47;8.95;;;2.90;;
80565;SDS011;69915;54.862;10.730;2023-08-12T08:00:13;4.18;;;2.78;;
80565;SDS011;69915;54.862;10.730;2023-08-12T08:02:38;5.78;;;3.50;;
80565;SDS011;69915;54.862;10.730;2023-08-12T08:05:04;6.82;;;3.85;;
80565;SDS011;69915;54.862;10.730;2023-08-12T08:07:30;5.05;;;3.45;;
80565;SDS011;69915;54.862;10.730;2023-08-12T08:09:56;4.60;;;2.55;;
80565;SDS011;69915;54.862;10.730;2023-08-12T08:12:22;5.35;;;2.80;;
80565;SDS011;69915;54.862;10.730;2023-08-12T08:14:47;5.07;;;2.85;;
80565;SDS011;69915;54.862;10.730;2023-08-12T08:17:13;5.75;;;2.63;;
80565;SDS011;69915;54.862;10.730;2023-08-12T08:19:38;4.88;;;2.92;;
80565;SDS011;69915;54.862;10.730;2023-08-12T08:22:04;5.00;;;3.15;;
80565;SDS011;69915;54.862;10.730;2023-08-12T08:24:30;4.00;;;2.63;;
80565;SDS011;69915;54.862;10.730;2023-08-12T08:26:56;5.43;;;2.80;;
80565;SDS011;69915;54.862;10.730;2023-08-12T08:29:22;4.53;;;3.00;;
80565;SDS011;69915;54.862;10.730;2023-08-12T08:31:48;3.83;;;2.67;;
80565;SDS011;69915;54.862;10.730;2023-08-12T08:34:14;4.57;;;3.20;;
80565;SDS011;69915;54.862;10.730;2023-08-12T08:36:40;4.50;;;2.95;;
80565;SDS011;69915;54.862;10.730;2023-08-12T08:39:05;5.13;;;2.72;;
80565;SDS011;69915;54.862;10.730;2023-08-12T08:41:31;6.50;;;3.20;;
80565;SDS011;69915;54.862;10.730;2023-08-12T08:44:02;4.40;;;2.80;;
80565;SDS011;69915;54.862;10.730;2023-08-12T08:46:32;5.65;;;3.03;;
80565;SDS011;69915;54.862;10.730;2023-08-12T08:48:58;5.80;;;2.72;;
80565;SDS011;69915;54.862;10.730;2023-08-12T08:51:25;5.65;;;3.38;;
80565;SDS011;69915;54.862;10.730;2023-08-12T08:53:55;5.82;;;2.78;;
80565;SDS011;69915;54.862;10.730;2023-08-12T08:56:21;4.72;;;2.92;;
80565;SDS011;69915;54.862;10.730;2023-08-12T08:58:47;5.05;;;2.72;;
80565;SDS011;69915;54.862;10.730;2023-08-12T09:01:12;4.63;;;2.75;;
80565;SDS011;69915;54.862;10.730;2023-08-12T09:03:40;6.22;;;3.35;;
80565;SDS011;69915;54.862;10.730;2023-08-12T09:06:07;4.60;;;2.97;;
80565;SDS011;69915;54.862;10.730;2023-08-12T09:08:33;4.57;;;3.30;;
80565;SDS011;69915;54.862;10.730;2023-08-12T09:11:00;4.97;;;3.05;;
80565;SDS011;69915;54.862;10.730;2023-08-12T09:13:27;6.03;;;2.80;;
80565;SDS011;69915;54.862;10.730;2023-08-12T09:15:53;4.53;;;2.97;;
80565;SDS011;69915;54.862;10.730;2023-08-12T09:18:19;4.43;;;3.03;;
80565;SDS011;69915;54.862;10.730;2023-08-12T09:20:49;5.00;;;3.17;;
80565;SDS011;69915;54.862;10.730;2023-08-12T09:23:19;5.38;;;2.72;;
80565;SDS011;69915;54.862;10.730;2023-08-12T09:25:45;5.13;;;3.30;;
80565;SDS011;69915;54.862;10.730;2023-08-12T09:28:11;6.40;;;3.03;;
80565;SDS011;69915;54.862;10.730;2023-08-12T09:30:37;4.90;;;3.00;;
80565;SDS011;69915;54.862;10.730;2023-08-12T09:33:04;4.68;;;2.92;;
80565;SDS011;69915;54.862;10.730;2023-08-12T09:35:36;5.55;;;3.30;;
80565;SDS011;69915;54.862;10.730;2023-08-12T09:38:04;5.68;;;3.05;;
80565;SDS011;69915;54.862;10.730;2023-08-12T09:40:34;5.00;;;3.83;;
80565;SDS011;69915;54.862;10.730;2023-08-12T09:43:01;8.20;;;3.42;;
80565;SDS011;69915;54.862;10.730;2023-08-12T09:45:27;6.97;;;3.47;;
80565;SDS011;69915;54.862;10.730;2023-08-12T09:47:53;5.85;;;3.60;;
80565;SDS011;69915;54.862;10.730;2023-08-12T09:50:25;4.82;;;3.17;;
80565;SDS011;69915;54.862;10.730;2023-08-12T09:52:52;6.63;;;3.50;;
80565;SDS011;69915;54.862;10.730;2023-08-12T09:55:19;5.25;;;3.40;;
80565;SDS011;69915;54.862;10.730;2023-08-12T09:57:47;5.20;;;3.90;;
80565;SDS011;69915;54.862;10.730;2023-08-12T10:00:15;5.72;;;3.83;;
80565;SDS011;69915;54.862;10.730;2023-08-12T10:02:44;5.05;;;3.90;;
80565;SDS011;69915;54.862;10.730;2023-08-12T10:05:32;7.75;;;3.53;;
80565;SDS011;69915;54.862;10.730;2023-08-12T10:07:59;6.25;;;3.30;;
80565;SDS011;69915;54.862;10.730;2023-08-12T10:10:29;5.72;;;2.60;;
80565;SDS011;69915;54.862;10.730;2023-08-12T10:12:56;9.43;;;3.33;;
80565;SDS011;69915;54.862;10.730;2023-08-12T10:15:26;5.00;;;3.33;;
80565;SDS011;69915;54.862;10.730;2023-08-12T10:17:56;4.95;;;2.95;;
80565;SDS011;69915;54.862;10.730;2023-08-12T10:20:23;5.20;;;2.40;;
80565;SDS011;69915;54.862;10.730;2023-08-12T10:22:49;4.85;;;2.67;;
80565;SDS011;69915;54.862;10.730;2023-08-12T10:25:19;4.30;;;2.83;;
80565;SDS011;69915;54.862;10.730;2023-08-12T10:27:47;7.43;;;2.17;;
80565;SDS011;69915;54.862;10.730;2023-08-12T10:30:13;5.50;;;2.42;;
80565;SDS011;69915;54.862;10.730;2023-08-12T10:32:39;4.95;;;2.33;;
80565;SDS011;69915;54.862;10.730;2023-08-12T10:35:05;4.30;;;2.40;;
80565;SDS011;69915;54.862;10.730;2023-08-12T10:37:32;5.15;;;2.78;;
80565;SDS011;69915;54.862;10.730;2023-08-12T10:39:59;6.10;;;2.70;;
80565;SDS011;69915;54.862;10.730;2023-08-12T10:42:40;4.47;;;2.70;;
80565;SDS011;69915;54.862;10.730;2023-08-12T10:45:07;6.05;;;2.90;;
80565;SDS011;69915;54.862;10.730;2023-08-12T10:47:37;7.15;;;2.70;;
80565;SDS011;69915;54.862;10.730;2023-08-12T10:50:17;4.32;;;2.85;;
80565;SDS011;69915;54.862;10.730;2023-08-12T10:52:44;4.82;;;2.70;;
80565;SDS011;69915;54.862;10.730;2023-08-12T10:57:49;5.68;;;2.67;;
80565;SDS011;69915;54.862;10.730;2023-08-12T11:00:20;6.07;;;3.28;;
80565;SDS011;69915;54.862;10.730;2023-08-12T11:02:51;4.47;;;2.70;;
80565;SDS011;69915;54.862;10.730;2023-08-12T11:05:18;6.40;;;2.80;;
80565;SDS011;69915;54.862;10.730;2023-08-12T11:07:45;6.22;;;3.60;;
80565;SDS011;69915;54.862;10.730;2023-08-12T11:10:17;4.90;;;2.63;;
80565;SDS011;69915;54.862;10.730;2023-08-12T11:15:16;5.05;;;2.92;;
80565;SDS011;69915;54.862;10.730;2023-08-12T11:17:42;5.93;;;3.00;;
80565;SDS011;69915;54.862;10.730;2023-08-12T11:20:08;5.72;;;2.92;;
80565;SDS011;69915;54.862;10.730;2023-08-12T11:22:39;5.00;;;3.20;;
80565;SDS011;69915;54.862;10.730;2023-08-12T11:25:07;4.85;;;3.50;;
80565;SDS011;69915;54.862;10.730;2023-08-12T11:27:44;4.50;;;2.70;;
80565;SDS011;69915;54.862;10.730;2023-08-12T11:30:11;4.35;;;2.60;;
80565;SDS011;69915;54.862;10.730;2023-08-12T11:35:06;5.53;;;2.90;;
80565;SDS011;69915;54.862;10.730;2023-08-12T11:37:34;5.25;;;3.10;;
80565;SDS011;69915;54.862;10.730;2023-08-12T11:40:02;5.53;;;3.08;;
80565;SDS011;69915;54.862;10.730;2023-08-12T11:42:28;4.53;;;2.70;;
80565;SDS011;69915;54.862;10.730;2023-08-12T11:44:54;4.82;;;3.25;;
80565;SDS011;69915;54.862;10.730;2023-08-12T11:47:19;4.50;;;2.47;;
80565;SDS011;69915;54.862;10.730;2023-08-12T11:49:45;4.45;;;2.45;;
80565;SDS011;69915;54.862;10.730;2023-08-12T11:52:10;5.45;;;3.10;;
80565;SDS011;69915;54.862;10.730;2023-08-12T11:54:37;5.78;;;3.25;;
80565;SDS011;69915;54.862;10.730;2023-08-12T11:57:03;4.47;;;3.05;;
80565;SDS011;69915;54.862;10.730;2023-08-12T11:59:30;5.82;;;2.90;;
80565;SDS011;69915;54.862;10.730;2023-08-12T12:01:55;8.55;;;2.75;;
80565;SDS011;69915;54.862;10.730;2023-08-12T12:04:21;4.55;;;2.90;;
80565;SDS011;69915;54.862;10.730;2023-08-12T12:06:46;4.70;;;2.90;;
80565;SDS011;69915;54.862;10.730;2023-08-12T12:09:15;4.25;;;3.10;;
80565;SDS011;69915;54.862;10.730;2023-08-12T12:11:43;5.32;;;2.90;;
80565;SDS011;69915;54.862;10.730;2023-08-12T12:14:09;5.47;;;3.15;;
80565;SDS011;69915;54.862;10.730;2023-08-12T12:19:05;4.78;;;2.75;;
80565;SDS011;69915;54.862;10.730;2023-08-12T12:21:40;5.88;;;3.15;;
80565;SDS011;69915;54.862;10.730;2023-08-12T12:24:07;4.18;;;2.70;;
80565;SDS011;69915;54.862;10.730;2023-08-12T12:26:34;6.72;;;3.35;;
80565;SDS011;69915;54.862;10.730;2023-08-12T12:28:59;5.05;;;3.05;;
80565;SDS011;69915;54.862;10.730;2023-08-12T12:31:25;4.53;;;3.70;;
80565;SDS011;69915;54.862;10.730;2023-08-12T12:33:50;6.20;;;3.50;;
80565;SDS011;69915;54.862;10.730;2023-08-12T12:36:16;5.22;;;3.33;;
80565;SDS011;69915;54.862;10.730;2023-08-12T12:38:41;5.20;;;3.42;;
80565;SDS011;69915;54.862;10.730;2023-08-12T12:41:07;4.65;;;3.05;;
80565;SDS011;69915;54.862;10.730;2023-08-12T12:43:32;5.22;;;3.63;;
80565;SDS011;69915;54.862;10.730;2023-08-12T12:45:58;8.05;;;3.78;;
80565;SDS011;69915;54.862;10.730;2023-08-12T12:48:23;5.95;;;3.85;;
80565;SDS011;69915;54.862;10.730;2023-08-12T12:50:49;6.15;;;4.18;;
80565;SDS011;69915;54.862;10.730;2023-08-12T12:53:14;6.18;;;4.07;;
80565;SDS011;69915;54.862;10.730;2023-08-12T12:55:40;6.00;;;4.05;;
80565;SDS011;69915;54.862;10.730;2023-08-12T12:58:05;6.90;;;4.22;;
80565;SDS011;69915;54.862;10.730;2023-08-12T13:00:30;8.18;;;4.47;;
80565;SDS011;69915;54.862;10.730;2023-08-12T13:02:56;6.82;;;3.70;;
80565;SDS011;69915;54.862;10.730;2023-08-12T13:05:21;7.78;;;4.40;;
80565;SDS011;69915;54.862;10.730;2023-08-12T13:07:47;7.50;;;3.70;;
80565;SDS011;69915;54.862;10.730;2023-08-12T13:10:12;5.45;;;3.85;;
80565;SDS011;69915;54.862;10.730;2023-08-12T13:12:38;7.28;;;4.00;;
80565;SDS011;69915;54.862;10.730;2023-08-12T13:15:03;7.88;;;4.68;;
80565;SDS011;69915;54.862;10.730;2023-08-12T13:17:29;6.43;;;4.53;;
80565;SDS011;69915;54.862;10.730;2023-08-12T13:19:54;5.97;;;4.32;;
80565;SDS011;69915;54.862;10.730;2023-08-12T13:22:20;7.22;;;4.30;;
80565;SDS011;69915;54.862;10.730;2023-08-12T13:24:45;8.32;;;6.30;;
80565;SDS011;69915;54.862;10.730;2023-08-12T13:27:11;8.25;;;6.28;;
80565;SDS011;69915;54.862;10.730;2023-08-12T13:29:38;8.80;;;5.18;;
80565;SDS011;69915;54.862;10.730;2023-08-12T13:32:03;6.07;;;5.05;;
80565;SDS011;69915;54.862;10.730;2023-08-12T13:34:29;7.22;;;4.72;;
80565;SDS011;69915;54.862;10.730;2023-08-12T13:36:54;12.25;;;5.43;;
80565;SDS011;69915;54.862;10.730;2023-08-12T13:39:20;6.70;;;5.07;;
80565;SDS011;69915;54.862;10.730;2023-08-12T13:41:45;7.63;;;4.80;;
80565;SDS011;69915;54.862;10.730;2023-08-12T13:44:11;8.60;;;4.72;;
80565;SDS011;69915;54.862;10.730;2023-08-12T13:46:38;10.13;;;5.43;;
80565;SDS011;69915;54.862;10.730;2023-08-12T13:49:03;10.48;;;7.47;;
80565;SDS011;69915;54.862;10.730;2023-08-12T13:51:28;11.48;;;7.15;;
80565;SDS011;69915;54.862;10.730;2023-08-12T13:53:55;12.65;;;8.13;;
80565;SDS011;69915;54.862;10.730;2023-08-12T13:56:21;12.15;;;8.38;;
80565;SDS011;69915;54.862;10.730;2023-08-12T13:58:46;15.32;;;8.40;;
80565;SDS011;69915;54.862;10.730;2023-08-12T14:01:12;9.57;;;6.80;;
80565;SDS011;69915;54.862;10.730;2023-08-12T14:03:37;10.77;;;7.75;;
80565;SDS011;69915;54.862;10.730;2023-08-12T14:06:03;11.43;;;7.15;;
80565;SDS011;69915;54.862;10.730;2023-08-12T14:08:28;9.30;;;6.10;;
80565;SDS011;69915;54.862;10.730;2023-08-12T14:10:54;8.23;;;6.78;;
80565;SDS011;69915;54.862;10.730;2023-08-12T14:13:19;10.80;;;7.30;;
80565;SDS011;69915;54.862;10.730;2023-08-12T14:15:45;9.07;;;7.68;;
80565;SDS011;69915;54.862;10.730;2023-08-12T14:18:10;9.57;;;7.70;;
80565;SDS011;69915;54.862;10.730;2023-08-12T14:20:36;10.70;;;6.63;;
80565;SDS011;69915;54.862;10.730;2023-08-12T14:23:01;6.38;;;4.25;;
80565;SDS011;69915;54.862;10.730;2023-08-12T14:25:27;10.13;;;5.00;;
80565;SDS011;69915;54.862;10.730;2023-08-12T14:27:52;10.60;;;5.63;;
80565;SDS011;69915;54.862;10.730;2023-08-12T14:30:18;7.90;;;6.07;;
80565;SDS011;69915;54.862;10.730;2023-08-12T14:32:45;6.97;;;5.60;;
80565;SDS011;69915;54.862;10.730;2023-08-12T14:35:10;9.20;;;7.03;;
80565;SDS011;69915;54.862;10.730;2023-08-12T14:37:36;10.35;;;5.90;;
80565;SDS011;69915;54.862;10.730;2023-08-12T14:40:01;9.90;;;6.38;;
80565;SDS011;69915;54.862;10.730;2023-08-12T14:42:28;8.63;;;5.90;;
80565;SDS011;69915;54.862;10.730;2023-08-12T14:44:53;8.35;;;5.65;;
80565;SDS011;69915;54.862;10.730;2023-08-12T14:47:19;8.13;;;6.03;;